sensor_id;sensor_type;location;lat;lon;timestamp;temperature;humidity
20526;DHT22;10421;49.142;9.232;2022-10-16T00:01:05;20.50;99.90
20526;DHT22;10421;49.142;9.232;2022-10-16T00:03:34;20.60;99.90
20526;DHT22;10421;49.142;9.232;2022-10-16T00:06:02;20.60;99.90
20526;DHT22;10421;49.142;9.232;2022-10-16T00:08:30;20.60;99.90
20526;DHT22;10421;49.142;9.232;2022-10-16T00:11:02;20.50;99.90
20526;DHT22;10421;49.142;9.232;2022-10-16T00:13:30;20.50;99.90
20526;DHT22;10421;49.142;9.232;2022-10-16T00:15:59;20.60;99.90
20526;DHT22;10421;49.142;9.232;2022-10-16T00:18:26;20.50;99.90
20526;DHT22;10421;49.142;9.232;2022-10-16T00:20:55;20.50;99.90
20526;DHT22;10421;49.142;9.232;2022-10-16T00:23:22;20.40;99.90
20526;DHT22;10421;49.142;9.232;2022-10-16T00:25:56;20.40;99.90
20526;DHT22;10421;49.142;9.232;2022-10-16T00:28:23;20.40;99.90
20526;DHT22;10421;49.142;9.232;2022-10-16T00:30:52;20.40;99.90
20526;DHT22;10421;49.142;9.232;2022-10-16T00:33:19;20.40;99.90
20526;DHT22;10421;49.142;9.232;2022-10-16T00:35:47;20.50;99.90
20526;DHT22;10421;49.142;9.232;2022-10-16T00:38:15;20.50;99.90
20526;DHT22;10421;49.142;9.232;2022-10-16T00:40:43;20.50;99.90
20526;DHT22;10421;49.142;9.232;2022-10-16T00:43:13;20.50;99.90
20526;DHT22;10421;49.142;9.232;2022-10-16T00:45:41;20.50;99.90
20526;DHT22;10421;49.142;9.232;2022-10-16T00:48:12;20.50;99.90
20526;DHT22;10421;49.142;9.232;2022-10-16T00:50:40;20.50;99.90
20526;DHT22;10421;49.142;9.232;2022-10-16T00:53:10;20.50;99.90
20526;DHT22;10421;49.142;9.232;2022-10-16T00:55:39;20.50;99.90
20526;DHT22;10421;49.142;9.232;2022-10-16T00:58:07;20.40;99.90
20526;DHT22;10421;49.142;9.232;2022-10-16T01:00:34;20.50;99.90
20526;DHT22;10421;49.142;9.232;2022-10-16T01:03:21;20.50;99.90
20526;DHT22;10421;49.142;9.232;2022-10-16T01:05:53;20.50;99.90
20526;DHT22;10421;49.142;9.232;2022-10-16T01:08:26;20.50;99.90
20526;DHT22;10421;49.142;9.232;2022-10-16T01:10:59;20.50;99.90
20526;DHT22;10421;49.142;9.232;2022-10-16T01:13:32;20.50;99.90
20526;DHT22;10421;49.142;9.232;2022-10-16T01:16:06;20.50;99.90
20526;DHT22;10421;49.142;9.232;2022-10-16T01:18:37;20.50;99.90
20526;DHT22;10421;49.142;9.232;2022-10-16T01:21:09;20.50;99.90
20526;DHT22;10421;49.142;9.232;2022-10-16T01:23:45;20.40;99.90
20526;DHT22;10421;49.142;9.232;2022-10-16T01:26:20;20.40;99.90
20526;DHT22;10421;49.142;9.232;2022-10-16T01:28:54;20.40;99.90
20526;DHT22;10421;49.142;9.232;2022-10-16T01:31:24;20.40;99.90
20526;DHT22;10421;49.142;9.232;2022-10-16T01:33:58;20.30;99.90
20526;DHT22;10421;49.142;9.232;2022-10-16T01:36:31;20.30;99.90
20526;DHT22;10421;49.142;9.232;2022-10-16T01:39:01;20.30;99.90
20526;DHT22;10421;49.142;9.232;2022-10-16T01:41:31;20.40;99.90
20526;DHT22;10421;49.142;9.232;2022-10-16T01:44:04;20.40;99.90
20526;DHT22;10421;49.142;9.232;2022-10-16T01:46:34;20.40;99.90
20526;DHT22;10421;49.142;9.232;2022-10-16T01:49:03;20.50;99.90
20526;DHT22;10421;49.142;9.232;2022-10-16T01:51:30;20.50;99.90
20526;DHT22;10421;49.142;9.232;2022-10-16T01:53:59;20.50;99.90
20526;DHT22;10421;49.142;9.232;2022-10-16T01:56:27;20.50;99.90
20526;DHT22;10421;49.142;9.232;2022-10-16T01:59:01;20.50;99.90
20526;DHT22;10421;49.142;9.232;2022-10-16T02:01:31;20.50;99.90
20526;DHT22;10421;49.142;9.232;2022-10-16T02:04:03;20.50;99.90
20526;DHT22;10421;49.142;9.232;2022-10-16T02:06:31;20.50;99.90
20526;DHT22;10421;49.142;9.232;2022-10-16T02:08:59;20.50;99.90
20526;DHT22;10421;49.142;9.232;2022-10-16T02:11:26;20.50;99.90
20526;DHT22;10421;49.142;9.232;2022-10-16T02:13:55;20.50;99.90
20526;DHT22;10421;49.142;9.232;2022-10-16T02:16:33;20.50;99.90
20526;DHT22;10421;49.142;9.232;2022-10-16T02:19:01;20.50;99.90
20526;DHT22;10421;49.142;9.232;2022-10-16T02:21:31;20.50;99.90
20526;DHT22;10421;49.142;9.232;2022-10-16T02:24:03;20.60;99.90
20526;DHT22;10421;49.142;9.232;2022-10-16T02:26:36;20.60;99.90
20526;DHT22;10421;49.142;9.232;2022-10-16T02:29:07;20.70;99.90
20526;DHT22;10421;49.142;9.232;2022-10-16T02:31:41;20.70;99.90
20526;DHT22;10421;49.142;9.232;2022-10-16T02:34:11;20.70;99.90
20526;DHT22;10421;49.142;9.232;2022-10-16T02:36:39;20.80;99.90
20526;DHT22;10421;49.142;9.232;2022-10-16T02:39:07;20.80;99.90
20526;DHT22;10421;49.142;9.232;2022-10-16T02:41:34;20.90;99.90
20526;DHT22;10421;49.142;9.232;2022-10-16T02:44:01;20.90;99.90
20526;DHT22;10421;49.142;9.232;2022-10-16T02:46:28;20.90;99.90
20526;DHT22;10421;49.142;9.232;2022-10-16T02:48:56;20.90;99.90
20526;DHT22;10421;49.142;9.232;2022-10-16T02:51:22;20.90;99.90
20526;DHT22;10421;49.142;9.232;2022-10-16T02:53:49;20.90;99.90
20526;DHT22;10421;49.142;9.232;2022-10-16T02:56:16;20.90;99.90
20526;DHT22;10421;49.142;9.232;2022-10-16T02:58:42;20.90;99.90
20526;DHT22;10421;49.142;9.232;2022-10-16T03:01:09;21.00;99.90
20526;DHT22;10421;49.142;9.232;2022-10-16T03:03:38;21.00;99.90
20526;DHT22;10421;49.142;9.232;2022-10-16T03:06:06;21.00;99.90
20526;DHT22;10421;49.142;9.232;2022-10-16T03:08:33;21.00;99.90
20526;DHT22;10421;49.142;9.232;2022-10-16T03:10:59;20.90;99.90
20526;DHT22;10421;49.142;9.232;2022-10-16T03:13:26;20.90;99.90
20526;DHT22;10421;49.142;9.232;2022-10-16T03:15:53;20.80;99.90
20526;DHT22;10421;49.142;9.232;2022-10-16T03:18:20;20.80;99.90
20526;DHT22;10421;49.142;9.232;2022-10-16T03:20:46;20.70;99.90
20526;DHT22;10421;49.142;9.232;2022-10-16T03:23:14;20.70;99.90
20526;DHT22;10421;49.142;9.232;2022-10-16T03:25:41;20.70;99.90
20526;DHT22;10421;49.142;9.232;2022-10-16T03:28:08;20.70;99.90
20526;DHT22;10421;49.142;9.232;2022-10-16T03:30:35;20.60;99.90
20526;DHT22;10421;49.142;9.232;2022-10-16T03:33:01;20.60;99.90
20526;DHT22;10421;49.142;9.232;2022-10-16T03:35:28;20.60;99.90
20526;DHT22;10421;49.142;9.232;2022-10-16T03:37:55;20.60;99.90
20526;DHT22;10421;49.142;9.232;2022-10-16T03:40:23;20.70;99.90
20526;DHT22;10421;49.142;9.232;2022-10-16T03:42:50;20.70;99.90
20526;DHT22;10421;49.142;9.232;2022-10-16T03:45:16;20.70;99.90
20526;DHT22;10421;49.142;9.232;2022-10-16T03:47:43;20.80;99.90
20526;DHT22;10421;49.142;9.232;2022-10-16T03:50:10;20.80;99.90
20526;DHT22;10421;49.142;9.232;2022-10-16T03:52:36;20.80;99.90
20526;DHT22;10421;49.142;9.232;2022-10-16T03:55:04;20.90;99.90
20526;DHT22;10421;49.142;9.232;2022-10-16T03:57:32;20.90;99.90
20526;DHT22;10421;49.142;9.232;2022-10-16T03:59:59;20.90;99.90
20526;DHT22;10421;49.142;9.232;2022-10-16T04:02:26;20.90;99.90
20526;DHT22;10421;49.142;9.232;2022-10-16T04:04:52;20.90;99.90
20526;DHT22;10421;49.142;9.232;2022-10-16T04:07:19;20.90;99.90
20526;DHT22;10421;49.142;9.232;2022-10-16T04:09:46;20.90;99.90
20526;DHT22;10421;49.142;9.232;2022-10-16T04:12:12;20.90;99.90
20526;DHT22;10421;49.142;9.232;2022-10-16T04:14:40;21.00;99.90
20526;DHT22;10421;49.142;9.232;2022-10-16T04:17:07;20.90;99.90
20526;DHT22;10421;49.142;9.232;2022-10-16T04:19:34;21.00;99.90
20526;DHT22;10421;49.142;9.232;2022-10-16T04:22:01;20.90;99.90
20526;DHT22;10421;49.142;9.232;2022-10-16T04:24:27;20.90;99.90
20526;DHT22;10421;49.142;9.232;2022-10-16T04:26:54;20.90;99.90
20526;DHT22;10421;49.142;9.232;2022-10-16T04:29:21;20.80;99.90
20526;DHT22;10421;49.142;9.232;2022-10-16T04:31:49;20.80;99.90
20526;DHT22;10421;49.142;9.232;2022-10-16T04:34:16;20.80;99.90
20526;DHT22;10421;49.142;9.232;2022-10-16T04:36:42;20.80;99.90
20526;DHT22;10421;49.142;9.232;2022-10-16T04:39:09;20.80;99.90
20526;DHT22;10421;49.142;9.232;2022-10-16T04:41:36;20.80;99.90
20526;DHT22;10421;49.142;9.232;2022-10-16T04:44:03;20.80;99.90
20526;DHT22;10421;49.142;9.232;2022-10-16T04:46:29;20.80;99.90
20526;DHT22;10421;49.142;9.232;2022-10-16T04:48:58;20.80;99.90
20526;DHT22;10421;49.142;9.232;2022-10-16T04:51:25;20.80;99.90
20526;DHT22;10421;49.142;9.232;2022-10-16T04:53:53;20.80;99.90
20526;DHT22;10421;49.142;9.232;2022-10-16T04:56:20;20.90;99.90
20526;DHT22;10421;49.142;9.232;2022-10-16T04:58:47;20.90;99.90
20526;DHT22;10421;49.142;9.232;2022-10-16T05:01:13;20.90;99.90
20526;DHT22;10421;49.142;9.232;2022-10-16T05:03:40;20.90;99.90
20526;DHT22;10421;49.142;9.232;2022-10-16T05:06:08;20.90;99.90
20526;DHT22;10421;49.142;9.232;2022-10-16T05:08:35;20.90;99.90
20526;DHT22;10421;49.142;9.232;2022-10-16T05:11:02;20.90;99.90
20526;DHT22;10421;49.142;9.232;2022-10-16T05:13:29;20.90;99.90
20526;DHT22;10421;49.142;9.232;2022-10-16T05:15:55;20.90;99.90
20526;DHT22;10421;49.142;9.232;2022-10-16T05:18:22;20.90;99.90
20526;DHT22;10421;49.142;9.232;2022-10-16T05:20:49;20.90;99.90
20526;DHT22;10421;49.142;9.232;2022-10-16T05:23:17;20.90;99.90
20526;DHT22;10421;49.142;9.232;2022-10-16T05:25:52;20.90;99.90
20526;DHT22;10421;49.142;9.232;2022-10-16T05:28:18;20.90;99.90
20526;DHT22;10421;49.142;9.232;2022-10-16T05:30:45;20.90;99.90
20526;DHT22;10421;49.142;9.232;2022-10-16T05:33:12;20.90;99.90
20526;DHT22;10421;49.142;9.232;2022-10-16T05:35:39;20.90;99.90
20526;DHT22;10421;49.142;9.232;2022-10-16T05:38:06;20.90;99.90
20526;DHT22;10421;49.142;9.232;2022-10-16T05:40:34;20.80;99.90
20526;DHT22;10421;49.142;9.232;2022-10-16T05:43:00;20.80;99.90
20526;DHT22;10421;49.142;9.232;2022-10-16T05:45:27;20.80;99.90
20526;DHT22;10421;49.142;9.232;2022-10-16T05:47:54;20.80;99.90
20526;DHT22;10421;49.142;9.232;2022-10-16T05:50:21;20.80;99.90
20526;DHT22;10421;49.142;9.232;2022-10-16T05:52:47;20.80;99.90
20526;DHT22;10421;49.142;9.232;2022-10-16T05:55:14;20.70;99.90
20526;DHT22;10421;49.142;9.232;2022-10-16T05:57:42;20.60;99.90
20526;DHT22;10421;49.142;9.232;2022-10-16T06:00:10;20.60;99.90
20526;DHT22;10421;49.142;9.232;2022-10-16T06:02:37;20.50;99.90
20526;DHT22;10421;49.142;9.232;2022-10-16T06:05:04;20.60;99.90
20526;DHT22;10421;49.142;9.232;2022-10-16T06:07:34;20.60;99.90
20526;DHT22;10421;49.142;9.232;2022-10-16T06:10:02;20.60;99.90
20526;DHT22;10421;49.142;9.232;2022-10-16T06:12:29;20.60;99.90
20526;DHT22;10421;49.142;9.232;2022-10-16T06:14:57;20.70;99.90
20526;DHT22;10421;49.142;9.232;2022-10-16T06:17:24;20.70;99.90
20526;DHT22;10421;49.142;9.232;2022-10-16T06:19:51;20.70;99.80
20526;DHT22;10421;49.142;9.232;2022-10-16T06:22:18;20.80;99.80
20526;DHT22;10421;49.142;9.232;2022-10-16T06:24:45;20.80;99.70
20526;DHT22;10421;49.142;9.232;2022-10-16T06:27:13;20.70;99.60
20526;DHT22;10421;49.142;9.232;2022-10-16T06:29:39;20.70;99.60
20526;DHT22;10421;49.142;9.232;2022-10-16T06:32:07;20.70;99.60
20526;DHT22;10421;49.142;9.232;2022-10-16T06:34:35;20.70;99.50
20526;DHT22;10421;49.142;9.232;2022-10-16T06:37:01;20.70;99.60
20526;DHT22;10421;49.142;9.232;2022-10-16T06:39:28;20.70;99.60
20526;DHT22;10421;49.142;9.232;2022-10-16T06:41:55;20.80;99.60
20526;DHT22;10421;49.142;9.232;2022-10-16T06:44:22;20.80;99.60
20526;DHT22;10421;49.142;9.232;2022-10-16T06:46:48;20.90;99.60
20526;DHT22;10421;49.142;9.232;2022-10-16T06:49:16;20.90;99.60
20526;DHT22;10421;49.142;9.232;2022-10-16T06:51:47;21.00;99.60
20526;DHT22;10421;49.142;9.232;2022-10-16T06:54:15;20.90;99.50
20526;DHT22;10421;49.142;9.232;2022-10-16T06:56:43;21.00;99.50
20526;DHT22;10421;49.142;9.232;2022-10-16T06:59:10;21.00;99.50
20526;DHT22;10421;49.142;9.232;2022-10-16T07:01:37;21.00;99.50
20526;DHT22;10421;49.142;9.232;2022-10-16T07:04:03;21.00;99.30
20526;DHT22;10421;49.142;9.232;2022-10-16T07:06:33;21.00;99.20
20526;DHT22;10421;49.142;9.232;2022-10-16T07:09:03;21.00;99.20
20526;DHT22;10421;49.142;9.232;2022-10-16T07:11:30;21.00;99.20
20526;DHT22;10421;49.142;9.232;2022-10-16T07:13:57;21.10;99.20
20526;DHT22;10421;49.142;9.232;2022-10-16T07:16:27;21.10;99.20
20526;DHT22;10421;49.142;9.232;2022-10-16T07:18:55;21.20;99.20
20526;DHT22;10421;49.142;9.232;2022-10-16T07:21:25;21.20;99.20
20526;DHT22;10421;49.142;9.232;2022-10-16T07:23:54;21.20;99.20
20526;DHT22;10421;49.142;9.232;2022-10-16T07:26:27;21.30;99.30
20526;DHT22;10421;49.142;9.232;2022-10-16T07:28:55;21.30;99.60
20526;DHT22;10421;49.142;9.232;2022-10-16T07:31:22;21.40;99.30
20526;DHT22;10421;49.142;9.232;2022-10-16T07:33:49;21.40;99.30
20526;DHT22;10421;49.142;9.232;2022-10-16T07:36:18;21.40;99.30
20526;DHT22;10421;49.142;9.232;2022-10-16T07:38:45;21.40;99.30
20526;DHT22;10421;49.142;9.232;2022-10-16T07:41:16;21.50;99.40
20526;DHT22;10421;49.142;9.232;2022-10-16T07:43:46;21.50;99.40
20526;DHT22;10421;49.142;9.232;2022-10-16T07:46:13;21.50;99.30
20526;DHT22;10421;49.142;9.232;2022-10-16T07:48:39;21.50;99.20
20526;DHT22;10421;49.142;9.232;2022-10-16T07:51:12;21.40;98.90
20526;DHT22;10421;49.142;9.232;2022-10-16T07:53:40;21.40;98.80
20526;DHT22;10421;49.142;9.232;2022-10-16T07:56:08;21.30;98.80
20526;DHT22;10421;49.142;9.232;2022-10-16T07:58:36;21.30;98.70
20526;DHT22;10421;49.142;9.232;2022-10-16T08:01:04;21.20;98.90
20526;DHT22;10421;49.142;9.232;2022-10-16T08:03:31;21.20;98.70
20526;DHT22;10421;49.142;9.232;2022-10-16T08:05:59;21.20;98.70
20526;DHT22;10421;49.142;9.232;2022-10-16T08:08:27;21.20;98.60
20526;DHT22;10421;49.142;9.232;2022-10-16T08:10:54;21.30;98.50
20526;DHT22;10421;49.142;9.232;2022-10-16T08:13:21;21.20;98.50
20526;DHT22;10421;49.142;9.232;2022-10-16T08:15:49;21.20;98.60
20526;DHT22;10421;49.142;9.232;2022-10-16T08:18:16;21.20;98.60
20526;DHT22;10421;49.142;9.232;2022-10-16T08:20:43;21.30;98.60
20526;DHT22;10421;49.142;9.232;2022-10-16T08:23:11;21.40;98.60
20526;DHT22;10421;49.142;9.232;2022-10-16T08:25:38;21.40;98.60
20526;DHT22;10421;49.142;9.232;2022-10-16T08:28:07;21.60;98.70
20526;DHT22;10421;49.142;9.232;2022-10-16T08:30:34;21.80;98.70
20526;DHT22;10421;49.142;9.232;2022-10-16T08:33:02;21.90;98.60
20526;DHT22;10421;49.142;9.232;2022-10-16T08:35:29;22.10;98.50
20526;DHT22;10421;49.142;9.232;2022-10-16T08:37:56;22.20;98.40
20526;DHT22;10421;49.142;9.232;2022-10-16T08:40:25;22.40;98.30
20526;DHT22;10421;49.142;9.232;2022-10-16T08:43:00;22.50;97.80
20526;DHT22;10421;49.142;9.232;2022-10-16T08:45:41;22.60;97.40
20526;DHT22;10421;49.142;9.232;2022-10-16T08:48:21;22.70;97.10
20526;DHT22;10421;49.142;9.232;2022-10-16T08:50:52;22.80;97.00
20526;DHT22;10421;49.142;9.232;2022-10-16T08:53:24;22.80;96.90
20526;DHT22;10421;49.142;9.232;2022-10-16T08:55:53;22.70;96.60
20526;DHT22;10421;49.142;9.232;2022-10-16T08:58:22;22.70;96.40
20526;DHT22;10421;49.142;9.232;2022-10-16T09:00:53;22.50;96.40
20526;DHT22;10421;49.142;9.232;2022-10-16T09:03:32;22.40;96.40
20526;DHT22;10421;49.142;9.232;2022-10-16T09:06:29;22.30;96.70
20526;DHT22;10421;49.142;9.232;2022-10-16T09:09:10;22.20;96.50
20526;DHT22;10421;49.142;9.232;2022-10-16T09:11:47;22.20;96.70
20526;DHT22;10421;49.142;9.232;2022-10-16T09:14:37;22.20;96.70
20526;DHT22;10421;49.142;9.232;2022-10-16T09:17:18;22.20;96.90
20526;DHT22;10421;49.142;9.232;2022-10-16T09:19:53;22.10;96.50
20526;DHT22;10421;49.142;9.232;2022-10-16T09:22:24;22.10;96.50
20526;DHT22;10421;49.142;9.232;2022-10-16T09:24:52;22.10;97.00
20526;DHT22;10421;49.142;9.232;2022-10-16T09:27:23;22.20;97.00
20526;DHT22;10421;49.142;9.232;2022-10-16T09:29:50;22.20;96.80
20526;DHT22;10421;49.142;9.232;2022-10-16T09:32:19;22.20;96.90
20526;DHT22;10421;49.142;9.232;2022-10-16T09:34:50;22.30;96.90
20526;DHT22;10421;49.142;9.232;2022-10-16T09:37:20;22.40;96.80
20526;DHT22;10421;49.142;9.232;2022-10-16T09:39:49;22.70;96.70
20526;DHT22;10421;49.142;9.232;2022-10-16T09:42:17;22.90;96.60
20526;DHT22;10421;49.142;9.232;2022-10-16T09:44:47;23.00;96.40
20526;DHT22;10421;49.142;9.232;2022-10-16T09:47:16;23.30;96.30
20526;DHT22;10421;49.142;9.232;2022-10-16T09:49:54;23.50;95.80
20526;DHT22;10421;49.142;9.232;2022-10-16T09:52:22;23.70;95.40
20526;DHT22;10421;49.142;9.232;2022-10-16T09:54:50;23.80;94.90
20526;DHT22;10421;49.142;9.232;2022-10-16T09:57:17;24.00;94.90
20526;DHT22;10421;49.142;9.232;2022-10-16T09:59:48;24.00;95.10
20526;DHT22;10421;49.142;9.232;2022-10-16T10:02:17;24.10;94.70
20526;DHT22;10421;49.142;9.232;2022-10-16T10:04:49;24.20;94.40
20526;DHT22;10421;49.142;9.232;2022-10-16T10:07:21;24.30;94.40
20526;DHT22;10421;49.142;9.232;2022-10-16T10:09:49;24.40;94.10
20526;DHT22;10421;49.142;9.232;2022-10-16T10:12:19;24.40;93.90
20526;DHT22;10421;49.142;9.232;2022-10-16T10:14:48;24.50;94.10
20526;DHT22;10421;49.142;9.232;2022-10-16T10:17:18;24.70;93.90
20526;DHT22;10421;49.142;9.232;2022-10-16T10:19:48;24.80;93.70
20526;DHT22;10421;49.142;9.232;2022-10-16T10:22:26;25.00;93.40
20526;DHT22;10421;49.142;9.232;2022-10-16T10:25:01;25.10;92.90
20526;DHT22;10421;49.142;9.232;2022-10-16T10:27:42;25.20;92.70
20526;DHT22;10421;49.142;9.232;2022-10-16T10:30:15;25.10;92.30
20526;DHT22;10421;49.142;9.232;2022-10-16T10:32:51;25.20;92.40
20526;DHT22;10421;49.142;9.232;2022-10-16T10:35:24;25.30;92.60
20526;DHT22;10421;49.142;9.232;2022-10-16T10:38:09;25.30;91.70
20526;DHT22;10421;49.142;9.232;2022-10-16T10:40:45;25.40;91.60
20526;DHT22;10421;49.142;9.232;2022-10-16T10:43:25;25.30;91.50
20526;DHT22;10421;49.142;9.232;2022-10-16T10:45:59;25.20;91.20
20526;DHT22;10421;49.142;9.232;2022-10-16T10:48:52;25.20;91.30
20526;DHT22;10421;49.142;9.232;2022-10-16T10:51:25;25.20;91.30
20526;DHT22;10421;49.142;9.232;2022-10-16T10:54:06;25.20;91.30
20526;DHT22;10421;49.142;9.232;2022-10-16T10:56:45;25.20;91.30
20526;DHT22;10421;49.142;9.232;2022-10-16T10:59:40;25.00;91.60
20526;DHT22;10421;49.142;9.232;2022-10-16T11:02:15;25.00;91.90
20526;DHT22;10421;49.142;9.232;2022-10-16T11:05:07;25.00;92.10
20526;DHT22;10421;49.142;9.232;2022-10-16T11:07:43;25.00;92.00
20526;DHT22;10421;49.142;9.232;2022-10-16T11:10:18;25.00;92.20
20526;DHT22;10421;49.142;9.232;2022-10-16T11:12:48;24.90;92.30
20526;DHT22;10421;49.142;9.232;2022-10-16T11:15:21;24.90;92.30
20526;DHT22;10421;49.142;9.232;2022-10-16T11:17:53;25.00;92.50
20526;DHT22;10421;49.142;9.232;2022-10-16T11:20:24;25.00;92.40
20526;DHT22;10421;49.142;9.232;2022-10-16T11:22:55;25.10;92.30
20526;DHT22;10421;49.142;9.232;2022-10-16T11:25:27;25.20;92.30
20526;DHT22;10421;49.142;9.232;2022-10-16T11:27:58;25.50;92.30
20526;DHT22;10421;49.142;9.232;2022-10-16T11:30:30;25.70;92.20
20526;DHT22;10421;49.142;9.232;2022-10-16T11:33:06;25.90;92.10
20526;DHT22;10421;49.142;9.232;2022-10-16T11:35:41;26.10;91.00
20526;DHT22;10421;49.142;9.232;2022-10-16T11:38:14;26.10;90.90
20526;DHT22;10421;49.142;9.232;2022-10-16T11:40:47;26.20;90.70
20526;DHT22;10421;49.142;9.232;2022-10-16T11:43:19;26.40;90.60
20526;DHT22;10421;49.142;9.232;2022-10-16T11:45:51;26.50;90.10
20526;DHT22;10421;49.142;9.232;2022-10-16T11:48:24;26.70;90.00
20526;DHT22;10421;49.142;9.232;2022-10-16T11:50:56;26.90;90.10
20526;DHT22;10421;49.142;9.232;2022-10-16T11:53:39;27.10;89.50
20526;DHT22;10421;49.142;9.232;2022-10-16T11:56:12;27.30;88.50
20526;DHT22;10421;49.142;9.232;2022-10-16T11:58:45;27.40;86.60
20526;DHT22;10421;49.142;9.232;2022-10-16T12:01:20;27.30;85.10
20526;DHT22;10421;49.142;9.232;2022-10-16T12:04:00;27.10;84.30
20526;DHT22;10421;49.142;9.232;2022-10-16T12:06:34;27.00;84.80
20526;DHT22;10421;49.142;9.232;2022-10-16T12:09:03;26.90;85.20
20526;DHT22;10421;49.142;9.232;2022-10-16T12:11:37;26.90;85.30
20526;DHT22;10421;49.142;9.232;2022-10-16T12:14:07;26.90;85.20
20526;DHT22;10421;49.142;9.232;2022-10-16T12:16:51;26.80;84.00
20526;DHT22;10421;49.142;9.232;2022-10-16T12:19:19;26.80;84.10
20526;DHT22;10421;49.142;9.232;2022-10-16T12:21:46;26.70;84.00
20526;DHT22;10421;49.142;9.232;2022-10-16T12:24:24;26.80;84.00
20526;DHT22;10421;49.142;9.232;2022-10-16T12:26:55;26.80;84.10
20526;DHT22;10421;49.142;9.232;2022-10-16T12:29:34;26.80;84.40
20526;DHT22;10421;49.142;9.232;2022-10-16T12:32:03;26.90;84.60
20526;DHT22;10421;49.142;9.232;2022-10-16T12:34:37;27.00;84.00
20526;DHT22;10421;49.142;9.232;2022-10-16T12:37:14;27.00;84.10
20526;DHT22;10421;49.142;9.232;2022-10-16T12:39:41;27.20;84.60
20526;DHT22;10421;49.142;9.232;2022-10-16T12:42:31;27.10;84.00
20526;DHT22;10421;49.142;9.232;2022-10-16T12:45:00;27.10;84.00
20526;DHT22;10421;49.142;9.232;2022-10-16T12:47:38;27.10;83.90
20526;DHT22;10421;49.142;9.232;2022-10-16T12:50:26;27.00;84.40
20526;DHT22;10421;49.142;9.232;2022-10-16T12:52:54;26.90;85.30
20526;DHT22;10421;49.142;9.232;2022-10-16T12:55:21;27.00;85.60
20526;DHT22;10421;49.142;9.232;2022-10-16T12:58:08;27.00;85.80
20526;DHT22;10421;49.142;9.232;2022-10-16T13:00:43;27.00;85.70
20526;DHT22;10421;49.142;9.232;2022-10-16T13:06:19;26.90;84.50
20526;DHT22;10421;49.142;9.232;2022-10-16T13:11:52;26.90;84.80
20526;DHT22;10421;49.142;9.232;2022-10-16T13:17:18;26.90;85.30
20526;DHT22;10421;49.142;9.232;2022-10-16T13:19:54;26.90;85.50
20526;DHT22;10421;49.142;9.232;2022-10-16T13:22:29;26.90;85.60
20526;DHT22;10421;49.142;9.232;2022-10-16T13:25:06;26.80;85.40
20526;DHT22;10421;49.142;9.232;2022-10-16T13:27:45;26.80;85.50
20526;DHT22;10421;49.142;9.232;2022-10-16T13:30:18;26.80;85.80
20526;DHT22;10421;49.142;9.232;2022-10-16T13:32:47;26.70;85.30
20526;DHT22;10421;49.142;9.232;2022-10-16T13:35:20;26.70;85.00
20526;DHT22;10421;49.142;9.232;2022-10-16T13:37:47;26.60;84.90
20526;DHT22;10421;49.142;9.232;2022-10-16T13:40:19;26.50;84.90
20526;DHT22;10421;49.142;9.232;2022-10-16T13:42:46;26.50;84.70
20526;DHT22;10421;49.142;9.232;2022-10-16T13:45:22;26.40;85.00
20526;DHT22;10421;49.142;9.232;2022-10-16T13:48:00;26.30;85.70
20526;DHT22;10421;49.142;9.232;2022-10-16T13:50:27;26.20;86.80
20526;DHT22;10421;49.142;9.232;2022-10-16T13:53:03;26.10;87.90
20526;DHT22;10421;49.142;9.232;2022-10-16T13:55:31;26.10;88.10
20526;DHT22;10421;49.142;9.232;2022-10-16T13:58:05;26.10;88.40
20526;DHT22;10421;49.142;9.232;2022-10-16T14:00:33;26.10;88.60
20526;DHT22;10421;49.142;9.232;2022-10-16T14:03:03;26.10;89.00
20526;DHT22;10421;49.142;9.232;2022-10-16T14:05:31;26.10;89.20
20526;DHT22;10421;49.142;9.232;2022-10-16T14:07:58;26.10;89.20
20526;DHT22;10421;49.142;9.232;2022-10-16T14:10:28;26.20;89.30
20526;DHT22;10421;49.142;9.232;2022-10-16T14:13:00;26.20;89.40
20526;DHT22;10421;49.142;9.232;2022-10-16T14:15:28;26.20;89.70
20526;DHT22;10421;49.142;9.232;2022-10-16T14:17:58;26.40;90.00
20526;DHT22;10421;49.142;9.232;2022-10-16T14:20:28;26.50;90.00
20526;DHT22;10421;49.142;9.232;2022-10-16T14:22:59;26.50;89.70
20526;DHT22;10421;49.142;9.232;2022-10-16T14:25:28;26.50;89.60
20526;DHT22;10421;49.142;9.232;2022-10-16T14:28:03;26.60;89.70
20526;DHT22;10421;49.142;9.232;2022-10-16T14:30:31;26.50;90.00
20526;DHT22;10421;49.142;9.232;2022-10-16T14:33:01;26.50;89.70
20526;DHT22;10421;49.142;9.232;2022-10-16T14:35:31;26.50;90.00
20526;DHT22;10421;49.142;9.232;2022-10-16T14:38:01;26.50;90.00
20526;DHT22;10421;49.142;9.232;2022-10-16T14:40:30;26.50;89.90
20526;DHT22;10421;49.142;9.232;2022-10-16T14:42:58;26.50;89.80
20526;DHT22;10421;49.142;9.232;2022-10-16T14:45:27;26.50;89.90
20526;DHT22;10421;49.142;9.232;2022-10-16T14:47:57;26.50;89.90
20526;DHT22;10421;49.142;9.232;2022-10-16T14:50:25;26.50;90.00
20526;DHT22;10421;49.142;9.232;2022-10-16T14:52:53;26.50;90.00
20526;DHT22;10421;49.142;9.232;2022-10-16T14:55:20;26.40;90.00
20526;DHT22;10421;49.142;9.232;2022-10-16T14:57:47;26.40;90.00
20526;DHT22;10421;49.142;9.232;2022-10-16T15:00:17;26.40;90.00
20526;DHT22;10421;49.142;9.232;2022-10-16T15:02:45;26.30;90.00
20526;DHT22;10421;49.142;9.232;2022-10-16T15:05:15;26.30;90.10
20526;DHT22;10421;49.142;9.232;2022-10-16T15:07:44;26.30;90.30
20526;DHT22;10421;49.142;9.232;2022-10-16T15:10:12;26.20;90.30
20526;DHT22;10421;49.142;9.232;2022-10-16T15:12:39;26.20;90.40
20526;DHT22;10421;49.142;9.232;2022-10-16T15:15:22;26.20;90.50
20526;DHT22;10421;49.142;9.232;2022-10-16T15:17:50;26.20;90.60
20526;DHT22;10421;49.142;9.232;2022-10-16T15:20:18;26.20;90.70
20526;DHT22;10421;49.142;9.232;2022-10-16T15:22:46;26.20;90.80
20526;DHT22;10421;49.142;9.232;2022-10-16T15:25:22;26.20;90.90
20526;DHT22;10421;49.142;9.232;2022-10-16T15:27:52;26.20;91.10
20526;DHT22;10421;49.142;9.232;2022-10-16T15:30:19;26.20;91.30
20526;DHT22;10421;49.142;9.232;2022-10-16T15:32:46;26.20;91.50
20526;DHT22;10421;49.142;9.232;2022-10-16T15:35:13;26.10;91.60
20526;DHT22;10421;49.142;9.232;2022-10-16T15:37:39;26.10;91.70
20526;DHT22;10421;49.142;9.232;2022-10-16T15:40:09;26.10;91.90
20526;DHT22;10421;49.142;9.232;2022-10-16T15:42:36;26.10;92.00
20526;DHT22;10421;49.142;9.232;2022-10-16T15:45:03;26.10;92.00
20526;DHT22;10421;49.142;9.232;2022-10-16T15:47:31;26.20;92.10
20526;DHT22;10421;49.142;9.232;2022-10-16T15:50:01;26.20;92.50
20526;DHT22;10421;49.142;9.232;2022-10-16T15:52:28;26.20;92.30
20526;DHT22;10421;49.142;9.232;2022-10-16T15:54:57;26.20;92.40
20526;DHT22;10421;49.142;9.232;2022-10-16T15:57:27;26.30;92.40